Погода Гоясна 2 недели

Гояс, Бразилия

25 мая-06 июня
  • 25мая
    Сегодня
    +18°
    +32°
    Практически безоблачно
    ВремяПогодаТемператураВлажностьДавлениеВетер, м/сВероятность осадков
    00:00Облачно с прояснениями+21°C68 %700 мм1.7 м/с5 %
    03:00Облачно с прояснениями+19°C73 %699 мм1.6 м/с5 %
    06:00Облачно с прояснениями+17°C78 %700 мм1.2 м/с5 %
    09:00Ясно и безоблачно+24°C58 %703 мм0.9 м/с5 %
    12:00Небольшая облачность+29°C40 %702 мм0.9 м/с5 %
    15:00Практически безоблачно+31°C36 %701 мм0.6 м/с5 %
    18:00Ясно и безоблачно+28°C51 %700 мм1.5 м/с5 %
    21:00Ясно и безоблачно+24°C60 %701 мм1.7 м/с5 %
  • 26мая
    Воскресенье
    +15°
    +31°
    Ясно и безоблачно
    ВремяПогодаТемператураВлажностьДавлениеВетер, м/сВероятность осадков
    00:00Практически безоблачно+21°C63 %701 мм2.4 м/с5 %
    03:00Ясно и безоблачно+20°C71 %700 мм2.6 м/с5 %
    06:00Ясно и безоблачно+18°C82 %700 мм2.6 м/с5 %
    09:00Ясно и безоблачно+24°C62 %703 мм2.3 м/с5 %
    12:00Ясно и безоблачно+29°C36 %703 мм2.1 м/с5 %
    15:00Ясно и безоблачно+31°C32 %701 мм1.9 м/с5 %
    18:00Облачно с прояснениями+26°C46 %701 мм2.0 м/с5 %
    21:00Ясно и безоблачно+25°C40 %701 мм1.2 м/с5 %
  • 27мая
    Понедельник
    +18°
    +31°
    Ясно и безоблачно
    ВремяПогодаТемператураВлажностьДавлениеВетер, м/сВероятность осадков
    00:00Практически безоблачно+18°C66 %700 мм1.5 м/с5 %
    03:00Ясно и безоблачно+17°C73 %699 мм1.4 м/с5 %
    06:00Ясно и безоблачно+15°C77 %700 мм1.1 м/с5 %
    09:00Ясно и безоблачно+22°C55 %703 мм0.6 м/с5 %
    12:00Ясно и безоблачно+30°C33 %703 мм2.6 м/с5 %
    15:00Ясно и безоблачно+31°C31 %701 мм1.6 м/с5 %
    18:00Ясно и безоблачно+28°C42 %701 мм1.2 м/с5 %
    21:00Ясно и безоблачно+25°C45 %702 мм1.2 м/с5 %
  • 28мая
    Вторник
    +18°
    +31°
    Облачно с прояснениями
    ВремяПогодаТемператураВлажностьДавлениеВетер, м/сВероятность осадков
    00:00Ясно и безоблачно+20°C62 %701 мм1.9 м/с5 %
    03:00Ясно и безоблачно+19°C62 %700 мм2.0 м/с5 %
    06:00Ясно и безоблачно+18°C69 %701 мм2.3 м/с5 %
    09:00Ясно и безоблачно+23°C56 %703 мм1.3 м/с5 %
    12:00Ясно и безоблачно+30°C38 %703 мм0.9 м/с5 %
    15:00Облачно с прояснениями+31°C34 %701 мм0.9 м/с5 %
    18:00Ясно и безоблачно+28°C44 %701 мм1.8 м/с5 %
    21:00Небольшая облачность+23°C54 %702 мм2.4 м/с5 %
Мы используем cookies
Соглашаюсь